Terminal Aerodrome Forecast
Issued by NWS

Home | Current Version | Previous Version | Text Only | Print | Product List | Glossary On
Versions: 1 2 3 4 5 6 7 8 9 10 11 12 13 14 15
629
FTUS43 KOAX 231133
TAFCDR
TAF
KCDR 231133Z 2312/2412 18007KT P6SM SKC
     FM232300 09007KT P6SM SCT120=

USA.gov is the U.S. government's official web portal to all federal, state and local government web resources and services.